createdAt,value
2022-12-14T00:01:36.975Z,18.20
2022-12-14T00:04:04.017Z,16.83
2022-12-14T00:06:32.745Z,17.77
2022-12-14T00:09:01.963Z,17.35
2022-12-14T00:11:28.812Z,16.80
2022-12-14T00:14:01.160Z,17.65
2022-12-14T00:16:30.083Z,17.98
2022-12-14T00:18:58.890Z,16.63
2022-12-14T00:21:26.948Z,18.55
2022-12-14T00:23:54.550Z,17.88
2022-12-14T00:26:23.770Z,18.42
2022-12-14T00:28:52.457Z,17.38
2022-12-14T00:31:20.629Z,17.15
2022-12-14T00:33:47.625Z,17.38
2022-12-14T00:36:14.783Z,17.20
2022-12-14T00:38:42.424Z,18.33
2022-12-14T00:41:10.650Z,17.23
2022-12-14T00:43:38.106Z,17.20
2022-12-14T00:46:05.438Z,17.42
2022-12-14T00:48:32.855Z,18.15
2022-12-14T00:50:59.954Z,17.63
2022-12-14T00:53:26.837Z,17.55
2022-12-14T00:55:53.657Z,18.42
2022-12-14T00:58:22.680Z,18.45
2022-12-14T01:01:04.151Z,18.23
2022-12-14T01:03:31.740Z,18.15
2022-12-14T01:05:59.070Z,18.98
2022-12-14T01:08:25.823Z,19.65
2022-12-14T01:10:53.182Z,19.75
2022-12-14T01:13:19.961Z,19.63
2022-12-14T01:15:46.971Z,17.90
2022-12-14T01:18:13.980Z,18.23
2022-12-14T01:20:40.757Z,19.20
2022-12-14T01:23:07.753Z,17.90
2022-12-14T01:25:34.543Z,17.88
2022-12-14T01:28:01.474Z,20.30
2022-12-14T01:30:28.168Z,20.13
2022-12-14T01:32:55.049Z,19.15
2022-12-14T01:35:21.820Z,19.95
2022-12-14T01:37:49.191Z,20.13
2022-12-14T01:40:16.489Z,20.27
2022-12-14T01:42:43.431Z,20.00
2022-12-14T01:45:22.046Z,19.02
2022-12-14T01:47:55.097Z,19.67
2022-12-14T01:50:37.078Z,19.58
2022-12-14T01:53:12.233Z,19.33
2022-12-14T01:55:49.068Z,18.50
2022-12-14T01:58:18.665Z,19.50
2022-12-14T02:00:45.533Z,20.13
2022-12-14T02:03:23.427Z,21.02
2022-12-14T02:05:59.274Z,20.60
2022-12-14T02:08:26.736Z,19.83
2022-12-14T02:10:55.621Z,19.48
2022-12-14T02:13:35.552Z,18.50
2022-12-14T02:16:02.549Z,20.42
2022-12-14T02:18:31.393Z,19.40
2022-12-14T02:21:07.012Z,18.42
2022-12-14T02:23:57.666Z,19.90
2022-12-14T02:26:55.234Z,18.30
2022-12-14T02:29:24.695Z,19.17
2022-12-14T02:32:11.072Z,19.17
2022-12-14T02:35:05.536Z,20.67
2022-12-14T02:37:32.198Z,20.25
2022-12-14T02:40:05.771Z,18.67
2022-12-14T02:42:45.761Z,20.90
2022-12-14T02:45:37.041Z,18.63
2022-12-14T02:48:10.161Z,19.48
2022-12-14T02:51:01.272Z,18.73
2022-12-14T02:54:23.895Z,19.02
2022-12-14T02:56:56.328Z,19.20
2022-12-14T02:59:24.773Z,19.35
2022-12-14T03:01:52.683Z,18.48
2022-12-14T03:04:20.461Z,19.20
2022-12-14T03:07:02.695Z,20.02
2022-12-14T03:09:31.585Z,18.52
2022-12-14T03:12:07.438Z,17.92
2022-12-14T03:14:45.852Z,20.02
2022-12-14T03:17:23.823Z,20.88
2022-12-14T03:19:55.944Z,20.42
2022-12-14T03:22:47.937Z,19.42
2022-12-14T03:25:19.759Z,20.83
2022-12-14T03:28:03.645Z,19.27
2022-12-14T03:30:58.923Z,14.70
2022-12-14T03:33:23.919Z,18.92
2022-12-14T03:36:00.027Z,20.20
2022-12-14T03:38:48.862Z,20.00
2022-12-14T03:41:24.552Z,20.08
2022-12-14T03:43:54.378Z,19.40
2022-12-14T03:46:31.906Z,19.23
2022-12-14T03:49:20.293Z,20.10
2022-12-14T03:52:22.446Z,19.73
2022-12-14T03:55:06.040Z,19.55
2022-12-14T03:57:54.287Z,15.27
2022-12-14T04:00:23.580Z,19.58
2022-12-14T04:03:10.473Z,19.85
2022-12-14T04:05:49.147Z,21.55
2022-12-14T04:08:24.792Z,21.70
2022-12-14T04:11:13.885Z,20.17
2022-12-14T04:14:03.895Z,22.20
2022-12-14T04:16:54.056Z,21.58
2022-12-14T04:19:31.808Z,21.27
2022-12-14T04:22:04.579Z,21.30
2022-12-14T04:25:12.943Z,21.60
2022-12-14T04:27:54.934Z,21.85
2022-12-14T04:30:23.139Z,20.98
2022-12-14T04:32:49.889Z,20.67
2022-12-14T04:35:32.100Z,21.27
2022-12-14T04:38:13.537Z,21.80
2022-12-14T04:40:53.497Z,19.98
2022-12-14T04:43:24.258Z,21.05
2022-12-14T04:46:14.685Z,20.80
2022-12-14T04:49:18.778Z,20.92
2022-12-14T04:52:01.970Z,20.25
2022-12-14T04:57:38.784Z,22.00
2022-12-14T05:00:05.457Z,20.58
2022-12-14T05:02:50.340Z,20.20
2022-12-14T05:05:27.801Z,22.25
2022-12-14T05:08:01.839Z,21.30
2022-12-14T05:11:21.815Z,22.85
2022-12-14T05:13:50.426Z,21.42
2022-12-14T05:16:23.287Z,22.65
2022-12-14T05:18:50.164Z,21.35
2022-12-14T05:21:35.608Z,21.10
2022-12-14T05:24:04.286Z,21.63
2022-12-14T05:26:31.479Z,21.88
2022-12-14T05:28:58.225Z,21.35
2022-12-14T05:31:25.811Z,22.38
2022-12-14T05:37:43.311Z,22.73
2022-12-14T05:40:11.177Z,22.42
2022-12-14T05:42:42.726Z,22.00
2022-12-14T05:45:15.348Z,21.90
2022-12-14T05:47:41.969Z,22.13
2022-12-14T05:50:09.045Z,22.23
2022-12-14T05:52:35.709Z,22.27
2022-12-14T05:55:04.377Z,22.33
2022-12-14T05:57:31.994Z,22.23
2022-12-14T05:59:58.618Z,23.17
2022-12-14T06:02:25.339Z,23.23
2022-12-14T06:04:52.241Z,23.20
2022-12-14T06:07:21.771Z,21.90
2022-12-14T06:09:52.613Z,22.00
2022-12-14T06:12:19.335Z,21.48
2022-12-14T06:16:28.285Z,21.58
2022-12-14T06:18:56.630Z,22.92
2022-12-14T06:21:25.976Z,22.48
2022-12-14T06:23:52.951Z,23.55
2022-12-14T06:26:19.859Z,23.10
2022-12-14T06:28:46.519Z,23.40
2022-12-14T06:31:19.044Z,22.80
2022-12-14T06:33:46.241Z,21.27
2022-12-14T06:36:23.566Z,21.38
2022-12-14T06:38:51.571Z,22.05
2022-12-14T06:41:25.611Z,22.63
2022-12-14T06:43:53.643Z,22.58
2022-12-14T06:46:22.275Z,22.40
2022-12-14T06:48:54.277Z,23.73
2022-12-14T06:51:22.758Z,23.52
2022-12-14T06:53:54.599Z,23.55
2022-12-14T06:56:22.755Z,22.73
2022-12-14T06:58:49.838Z,24.02
2022-12-14T07:01:19.435Z,22.30
2022-12-14T07:03:55.111Z,21.65
2022-12-14T07:06:27.121Z,23.38
2022-12-14T07:08:55.565Z,21.55
2022-12-14T07:11:22.570Z,23.77
2022-12-14T07:13:49.367Z,22.65
2022-12-14T07:16:19.666Z,21.88
2022-12-14T07:18:46.737Z,22.20
2022-12-14T07:21:15.347Z,23.13
2022-12-14T07:23:43.656Z,23.90
2022-12-14T07:26:27.675Z,22.85
2022-12-14T07:28:55.087Z,24.30
2022-12-14T07:31:27.132Z,23.23
2022-12-14T07:33:59.421Z,23.48
2022-12-14T07:36:28.226Z,23.52
2022-12-14T07:38:56.031Z,23.20
2022-12-14T07:41:29.409Z,23.85
2022-12-14T07:43:56.572Z,24.50
2022-12-14T07:46:26.707Z,23.73
2022-12-14T07:48:56.123Z,23.23
2022-12-14T07:51:26.685Z,22.15
2022-12-14T07:53:53.592Z,23.30
2022-12-14T07:56:23.403Z,22.75
2022-12-14T07:58:50.295Z,23.88
2022-12-14T08:01:22.287Z,24.33
2022-12-14T08:03:55.320Z,24.60
2022-12-14T08:06:24.411Z,25.98
2022-12-14T08:08:52.460Z,23.70
2022-12-14T08:11:22.280Z,23.30
2022-12-14T08:13:54.011Z,23.15
2022-12-14T08:16:21.285Z,22.80
2022-12-14T08:18:48.052Z,23.77
2022-12-14T08:21:15.772Z,23.00
2022-12-14T08:23:42.548Z,22.73
2022-12-14T08:26:12.670Z,22.95
2022-12-14T08:28:39.413Z,24.25
2022-12-14T08:31:13.975Z,23.17
2022-12-14T08:33:41.708Z,23.55
2022-12-14T08:36:10.761Z,23.88
2022-12-14T08:38:38.878Z,23.17
2022-12-14T08:41:11.204Z,25.50
2022-12-14T08:43:38.839Z,23.90
2022-12-14T08:46:06.328Z,23.55
2022-12-14T08:48:32.980Z,24.20
2022-12-14T08:51:04.602Z,24.90
2022-12-14T08:53:32.157Z,23.55
2022-12-14T08:56:04.941Z,24.13
2022-12-14T08:58:31.644Z,23.45
2022-12-14T09:01:03.504Z,24.75
2022-12-14T09:03:30.727Z,24.40
2022-12-14T09:06:01.086Z,22.83
2022-12-14T09:08:27.916Z,24.52
2022-12-14T09:10:54.626Z,22.98
2022-12-14T09:13:21.346Z,22.95
2022-12-14T09:15:59.932Z,25.25
2022-12-14T09:18:28.011Z,24.08
2022-12-14T09:20:55.904Z,22.48
2022-12-14T09:23:24.356Z,24.25
2022-12-14T09:26:14.452Z,24.02
2022-12-14T09:28:42.881Z,23.80
2022-12-14T09:31:14.468Z,24.95
2022-12-14T09:33:41.741Z,25.38
2022-12-14T09:36:19.766Z,25.05
2022-12-14T09:38:50.889Z,23.85
2022-12-14T09:41:34.663Z,23.30
2022-12-14T09:44:24.836Z,24.75
2022-12-14T09:47:17.948Z,24.23
2022-12-14T09:50:10.245Z,24.00
2022-12-14T09:52:40.061Z,25.98
2022-12-14T09:55:34.384Z,23.88
2022-12-14T09:58:32.517Z,23.95
2022-12-14T10:01:22.794Z,23.88
2022-12-14T10:04:09.383Z,26.17
2022-12-14T10:07:10.479Z,26.73
2022-12-14T10:09:37.186Z,25.85
2022-12-14T10:12:22.563Z,24.65
2022-12-14T10:14:52.109Z,24.55
2022-12-14T10:17:31.212Z,25.45
2022-12-14T10:20:04.759Z,28.20
2022-12-14T10:22:46.612Z,19.63
2022-12-14T10:25:18.228Z,26.10
2022-12-14T10:28:13.835Z,25.80
2022-12-14T10:30:42.481Z,26.92
2022-12-14T10:33:31.480Z,25.40
2022-12-14T10:36:23.109Z,25.23
2022-12-14T10:39:02.457Z,25.02
2022-12-14T10:41:59.436Z,25.50
2022-12-14T10:44:44.487Z,25.73
2022-12-14T10:47:29.796Z,24.17
2022-12-14T10:50:22.280Z,25.98
2022-12-14T10:52:53.529Z,24.90
2022-12-14T10:55:32.681Z,27.30
2022-12-14T10:58:00.781Z,27.27
2022-12-14T11:00:28.026Z,25.02
2022-12-14T11:02:57.611Z,24.58
2022-12-14T11:05:38.533Z,24.48
2022-12-14T11:08:07.564Z,24.85
2022-12-14T11:10:37.078Z,23.63
2022-12-14T11:13:16.983Z,24.05
2022-12-14T11:15:49.708Z,27.52
2022-12-14T11:18:16.545Z,26.73
2022-12-14T11:21:01.466Z,29.08
2022-12-14T11:23:29.554Z,29.40
2022-12-14T11:26:01.249Z,26.42
2022-12-14T11:28:37.914Z,26.17
2022-12-14T11:31:25.102Z,29.35
2022-12-14T11:33:54.982Z,28.02
2022-12-14T11:36:41.670Z,26.75
2022-12-14T11:39:14.530Z,26.83
2022-12-14T11:41:44.685Z,30.25
2022-12-14T11:44:14.412Z,25.83
2022-12-14T11:46:59.298Z,28.17
2022-12-14T11:49:33.559Z,26.48
2022-12-14T11:54:41.032Z,31.13
2022-12-14T11:57:14.022Z,36.25
2022-12-14T12:00:00.119Z,32.00
2022-12-14T12:02:49.041Z,31.90
2022-12-14T12:05:19.735Z,33.50
2022-12-14T12:07:49.476Z,35.70
2022-12-14T12:10:36.286Z,29.45
2022-12-14T12:13:17.180Z,28.30
2022-12-14T12:15:54.506Z,28.55
2022-12-14T12:18:31.567Z,29.45
2022-12-14T12:21:18.337Z,29.65
2022-12-14T12:24:06.797Z,30.95
2022-12-14T12:27:12.114Z,29.27
2022-12-14T12:32:41.956Z,28.83
2022-12-14T12:35:23.157Z,29.80
2022-12-14T12:38:16.877Z,31.88
2022-12-14T12:40:43.514Z,35.55
2022-12-14T12:43:20.287Z,37.33
2022-12-14T12:45:53.691Z,30.65
2022-12-14T12:48:29.841Z,24.17
2022-12-14T12:51:07.258Z,30.08
2022-12-14T12:53:39.929Z,28.83
2022-12-14T12:56:23.292Z,31.15
2022-12-14T12:58:53.193Z,33.80
2022-12-14T13:01:38.978Z,33.65
2022-12-14T13:04:10.939Z,36.53
2022-12-14T13:06:53.193Z,48.70
2022-12-14T13:09:35.275Z,34.95
2022-12-14T13:12:03.657Z,33.80
2022-12-14T13:14:44.349Z,32.38
2022-12-14T13:17:25.341Z,33.67
2022-12-14T13:19:55.425Z,34.80
2022-12-14T13:22:29.290Z,34.70
2022-12-14T13:25:02.871Z,27.65
2022-12-14T13:27:37.389Z,35.78
2022-12-14T13:30:34.794Z,33.67
2022-12-14T13:33:07.312Z,33.50
2022-12-14T13:35:53.591Z,30.52
2022-12-14T13:38:33.768Z,30.50
2022-12-14T13:41:13.029Z,29.23
2022-12-14T13:44:31.088Z,29.83
2022-12-14T13:47:06.136Z,26.55
2022-12-14T13:49:34.034Z,27.63
2022-12-14T13:52:01.309Z,30.08
2022-12-14T13:54:35.434Z,29.52
2022-12-14T13:57:06.543Z,30.88
2022-12-14T13:59:38.091Z,28.92
2022-12-14T14:02:06.716Z,29.55
2022-12-14T14:04:35.859Z,27.40
2022-12-14T14:07:24.558Z,27.02
2022-12-14T14:10:05.996Z,26.77
2022-12-14T14:12:34.443Z,27.23
2022-12-14T14:15:26.904Z,25.85
2022-12-14T14:17:55.185Z,25.65
2022-12-14T14:20:30.857Z,25.35
2022-12-14T14:23:18.542Z,25.65
2022-12-14T14:26:10.163Z,26.98
2022-12-14T14:28:38.147Z,28.45
2022-12-14T14:31:05.636Z,29.52
2022-12-14T14:33:48.953Z,50.97
2022-12-14T14:36:33.372Z,51.65
2022-12-14T14:39:02.504Z,49.25
2022-12-14T14:41:38.173Z,42.25
2022-12-14T14:44:16.133Z,52.55
2022-12-14T14:46:47.165Z,38.13
2022-12-14T14:49:28.891Z,43.85
2022-12-14T14:51:55.775Z,41.90
2022-12-14T14:55:11.126Z,31.20
2022-12-14T14:57:34.425Z,33.22
2022-12-14T15:00:03.579Z,27.88
2022-12-14T15:02:34.254Z,26.15
2022-12-14T15:07:49.204Z,29.73
2022-12-14T15:10:22.927Z,24.60
2022-12-14T15:12:53.463Z,28.42
2022-12-14T15:15:32.284Z,29.83
2022-12-14T15:18:24.228Z,30.25
2022-12-14T15:21:02.519Z,30.65
2022-12-14T15:23:36.704Z,36.30
2022-12-14T15:26:16.233Z,30.95
2022-12-14T15:28:46.208Z,30.05
2022-12-14T15:31:13.761Z,27.90
2022-12-14T15:33:43.230Z,31.25
2022-12-14T15:36:16.993Z,30.25
2022-12-14T15:38:55.637Z,26.25
2022-12-14T15:41:25.526Z,30.00
2022-12-14T15:43:55.096Z,29.92
2022-12-14T15:46:33.256Z,28.70
2022-12-14T15:49:08.238Z,29.38
2022-12-14T15:51:42.074Z,27.23
2022-12-14T15:54:18.052Z,28.67
2022-12-14T15:56:47.432Z,29.88
2022-12-14T15:59:21.340Z,29.45
2022-12-14T16:01:55.941Z,28.75
2022-12-14T16:04:27.968Z,28.42
2022-12-14T16:07:08.950Z,29.25
2022-12-14T16:09:50.007Z,27.58
2022-12-14T16:12:44.212Z,26.23
2022-12-14T16:15:24.191Z,28.33
2022-12-14T16:17:59.262Z,27.35
2022-12-14T16:20:31.958Z,25.88
2022-12-14T16:23:22.261Z,28.13
2022-12-14T16:26:15.604Z,29.10
2022-12-14T16:28:42.822Z,34.38
2022-12-14T16:31:24.238Z,30.55
2022-12-14T16:34:18.932Z,30.85
2022-12-14T16:37:08.066Z,28.50
2022-12-14T16:39:46.356Z,28.55
2022-12-14T16:42:24.771Z,27.77
2022-12-14T16:44:54.092Z,28.58
2022-12-14T16:47:20.867Z,29.05
2022-12-14T16:49:55.120Z,30.17
2022-12-14T16:55:16.213Z,26.60
2022-12-14T16:57:48.991Z,38.20
2022-12-14T17:00:38.586Z,29.05
2022-12-14T17:03:23.215Z,27.92
2022-12-14T17:05:53.909Z,26.13
2022-12-14T17:08:20.669Z,26.63
2022-12-14T17:10:47.396Z,30.88
2022-12-14T17:13:14.291Z,30.58
2022-12-14T17:16:01.368Z,29.85
2022-12-14T17:18:33.389Z,30.48
2022-12-14T17:21:01.316Z,28.88
2022-12-14T17:23:28.916Z,28.75
2022-12-14T17:25:55.774Z,29.02
2022-12-14T17:28:27.173Z,29.52
2022-12-14T17:30:57.366Z,27.92
2022-12-14T17:33:28.781Z,27.08
2022-12-14T17:35:56.185Z,27.60
2022-12-14T17:38:23.609Z,29.20
2022-12-14T17:40:51.553Z,31.77
2022-12-14T17:43:21.842Z,30.95
2022-12-14T17:45:48.570Z,29.77
2022-12-14T17:48:17.403Z,30.58
2022-12-14T17:50:47.632Z,29.05
2022-12-14T17:53:17.206Z,28.77
2022-12-14T17:55:44.331Z,32.78
2022-12-14T17:58:11.540Z,29.92
2022-12-14T18:01:03.063Z,35.75
2022-12-14T18:03:36.174Z,39.33
2022-12-14T18:06:04.603Z,28.17
2022-12-14T18:08:31.423Z,42.95
2022-12-14T18:11:01.654Z,41.72
2022-12-14T18:13:31.306Z,45.53
2022-12-14T18:16:00.139Z,47.10
2022-12-14T18:18:29.399Z,51.85
2022-12-14T18:21:01.832Z,37.55
2022-12-14T18:23:29.908Z,46.38
2022-12-14T18:25:59.280Z,45.28
2022-12-14T18:28:26.405Z,48.47
2022-12-14T18:31:06.586Z,45.40
2022-12-14T18:33:35.194Z,40.85
2022-12-14T18:36:02.029Z,40.72
2022-12-14T18:38:28.874Z,42.78
2022-12-14T18:40:58.594Z,45.30
2022-12-14T18:43:27.973Z,51.58
2022-12-14T18:45:56.274Z,41.22
2022-12-14T18:48:24.768Z,41.38
2022-12-14T18:50:53.904Z,43.17
2022-12-14T18:53:23.169Z,67.43
2022-12-14T18:55:50.254Z,62.45
2022-12-14T18:58:20.284Z,43.13
2022-12-14T19:00:47.511Z,38.05
2022-12-14T19:03:15.455Z,39.58
2022-12-14T19:05:42.344Z,36.83
2022-12-14T19:08:10.472Z,32.00
2022-12-14T19:10:42.468Z,39.00
2022-12-14T19:13:23.250Z,37.03
2022-12-14T19:15:52.143Z,36.80
2022-12-14T19:18:18.935Z,33.28
2022-12-14T19:20:45.870Z,35.10
2022-12-14T19:23:17.842Z,34.25
2022-12-14T19:25:45.325Z,31.80
2022-12-14T19:28:32.586Z,29.98
2022-12-14T19:30:59.751Z,30.63
2022-12-14T19:33:26.786Z,30.17
2022-12-14T19:35:54.233Z,32.30
2022-12-14T19:38:20.941Z,30.52
2022-12-14T19:41:03.231Z,29.45
2022-12-14T19:43:30.944Z,27.65
2022-12-14T19:45:58.529Z,28.17
2022-12-14T19:48:25.353Z,26.70
2022-12-14T19:50:52.244Z,25.67
2022-12-14T19:53:23.792Z,25.27
2022-12-14T19:55:52.781Z,25.85
2022-12-14T19:58:21.912Z,26.67
2022-12-14T20:00:49.964Z,27.17
2022-12-14T20:03:17.045Z,28.65
2022-12-14T20:06:04.788Z,26.27
2022-12-14T20:08:33.160Z,29.25
2022-12-14T20:11:04.904Z,25.55
2022-12-14T20:13:32.030Z,26.73
2022-12-14T20:15:59.389Z,27.50
2022-12-14T20:18:27.541Z,25.65
2022-12-14T20:21:02.278Z,24.23
2022-12-14T20:23:29.423Z,22.63
2022-12-14T20:26:01.098Z,21.98
2022-12-14T20:28:28.178Z,22.42
2022-12-14T20:30:54.984Z,24.77
2022-12-14T20:33:26.496Z,24.88
2022-12-14T20:35:56.758Z,22.20
2022-12-14T20:38:23.506Z,21.80
2022-12-14T20:40:50.280Z,21.00
2022-12-14T20:43:17.027Z,24.02
2022-12-14T20:45:44.192Z,22.50
2022-12-14T20:48:11.654Z,21.73
2022-12-14T20:50:40.668Z,21.08
2022-12-14T20:53:07.414Z,20.63
2022-12-14T20:55:35.313Z,20.48
2022-12-14T20:58:02.099Z,20.35
2022-12-14T21:00:28.871Z,18.13
2022-12-14T21:02:55.794Z,19.05
2022-12-14T21:05:22.631Z,18.27
2022-12-14T21:07:49.401Z,20.20
2022-12-14T21:10:16.143Z,19.00
2022-12-14T21:12:42.882Z,19.38
2022-12-14T21:15:09.736Z,19.75
2022-12-14T21:17:36.565Z,19.38
2022-12-14T21:20:05.403Z,18.55
2022-12-14T21:22:32.541Z,19.15
2022-12-14T21:25:06.794Z,17.75
2022-12-14T21:27:38.885Z,17.63
2022-12-14T21:30:10.900Z,16.20
2022-12-14T21:32:38.200Z,16.20
2022-12-14T21:35:05.828Z,17.40
2022-12-14T21:37:32.660Z,15.32
2022-12-14T21:40:00.258Z,16.55
2022-12-14T21:42:27.019Z,15.95
2022-12-14T21:44:55.253Z,15.77
2022-12-14T21:47:28.268Z,17.17
2022-12-14T21:49:55.720Z,17.60
2022-12-14T21:52:25.182Z,17.13
2022-12-14T21:54:51.917Z,18.75
2022-12-14T21:57:40.088Z,18.80
2022-12-14T22:00:08.569Z,17.58
2022-12-14T22:02:35.536Z,17.65
2022-12-14T22:05:02.547Z,17.58
2022-12-14T22:07:31.795Z,18.73
2022-12-14T22:09:58.830Z,18.13
2022-12-14T22:12:25.902Z,17.73
2022-12-14T22:14:52.748Z,18.80
2022-12-14T22:17:19.473Z,18.63
2022-12-14T22:19:46.412Z,18.85
2022-12-14T22:22:17.879Z,19.40
2022-12-14T22:24:47.830Z,19.23
2022-12-14T22:27:14.969Z,18.80
2022-12-14T22:29:41.992Z,17.65
2022-12-14T22:32:13.301Z,18.42
2022-12-14T22:34:40.196Z,18.98
2022-12-14T22:37:07.100Z,18.20
2022-12-14T22:39:34.076Z,18.05
2022-12-14T22:42:01.162Z,16.20
2022-12-14T22:44:28.101Z,16.55
2022-12-14T22:46:54.864Z,13.63
2022-12-14T22:49:21.744Z,14.07
2022-12-14T22:51:48.620Z,12.82
2022-12-14T22:54:22.600Z,12.40
2022-12-14T22:56:56.737Z,12.30
2022-12-14T22:59:29.126Z,12.20
2022-12-14T23:01:56.259Z,15.40
2022-12-14T23:04:23.122Z,15.75
2022-12-14T23:06:50.017Z,17.08
2022-12-14T23:09:35.850Z,16.55
2022-12-14T23:12:22.072Z,15.52
2022-12-14T23:15:07.427Z,16.00
2022-12-14T23:17:53.625Z,15.25
2022-12-14T23:20:39.121Z,16.77
2022-12-14T23:23:26.134Z,15.55
2022-12-14T23:26:11.708Z,16.20
2022-12-14T23:28:57.198Z,15.50
2022-12-14T23:31:42.313Z,15.80
2022-12-14T23:34:27.537Z,15.70
2022-12-14T23:37:19.503Z,16.10
2022-12-14T23:40:06.159Z,16.60
2022-12-14T23:42:51.424Z,15.63
2022-12-14T23:45:36.875Z,15.77
2022-12-14T23:48:22.682Z,16.77
2022-12-14T23:51:07.987Z,16.88
2022-12-14T23:53:53.591Z,17.30
2022-12-14T23:56:38.920Z,16.63
2022-12-14T23:59:29.747Z,16.52
